createdAt,value
2018-09-14T00:01:13.460Z,22.90
2018-09-14T00:03:41.993Z,24.43
2018-09-14T00:06:10.540Z,23.23
2018-09-14T00:08:39.090Z,22.33
2018-09-14T00:11:07.637Z,22.83
2018-09-14T00:13:36.184Z,21.37
2018-09-14T00:16:04.729Z,20.90
2018-09-14T00:18:33.268Z,24.10
2018-09-14T00:21:01.784Z,23.00
2018-09-14T00:23:30.354Z,23.20
2018-09-14T00:25:58.876Z,23.60
2018-09-14T00:28:27.425Z,23.67
2018-09-14T00:30:55.951Z,22.53
2018-09-14T00:33:24.501Z,23.63
2018-09-14T00:35:53.033Z,22.23
2018-09-14T00:38:21.577Z,24.80
2018-09-14T00:40:50.395Z,25.17
2018-09-14T00:43:18.916Z,21.07
2018-09-14T00:45:47.460Z,22.37
2018-09-14T00:48:15.977Z,26.07
2018-09-14T00:50:44.540Z,24.30
2018-09-14T00:53:13.107Z,26.07
2018-09-14T00:55:41.658Z,25.33
2018-09-14T00:58:10.172Z,25.07
2018-09-14T01:00:38.722Z,26.47
2018-09-14T01:03:07.241Z,23.83
2018-09-14T01:05:35.818Z,25.23
2018-09-14T01:08:04.352Z,25.03
2018-09-14T01:10:32.901Z,23.93
2018-09-14T01:13:01.420Z,24.37
2018-09-14T01:15:29.977Z,24.20
2018-09-14T01:17:58.772Z,24.03
2018-09-14T01:20:27.320Z,25.03
2018-09-14T01:22:55.844Z,24.17
2018-09-14T01:25:24.689Z,23.60
2018-09-14T01:27:53.209Z,21.97
2018-09-14T01:30:21.756Z,21.83
2018-09-14T01:32:50.276Z,20.20
2018-09-14T01:35:24.061Z,19.80
2018-09-14T01:37:52.571Z,19.00
2018-09-14T01:40:21.117Z,19.13
2018-09-14T01:42:49.629Z,19.53
2018-09-14T01:45:18.185Z,17.93
2018-09-14T01:47:46.709Z,18.33
2018-09-14T01:50:15.253Z,18.30
2018-09-14T01:52:43.760Z,18.67
2018-09-14T01:55:12.313Z,18.53
2018-09-14T01:57:40.900Z,17.70
2018-09-14T02:00:09.500Z,18.23
2018-09-14T02:02:38.004Z,18.47
2018-09-14T02:05:06.641Z,17.47
2018-09-14T02:07:35.172Z,16.70
2018-09-14T02:10:03.765Z,18.17
2018-09-14T02:12:32.388Z,17.40
2018-09-14T02:15:00.954Z,16.90
2018-09-14T02:17:29.492Z,16.33
2018-09-14T02:19:58.065Z,16.10
2018-09-14T02:22:26.602Z,15.83
2018-09-14T02:24:55.156Z,16.03
2018-09-14T02:27:23.696Z,16.57
2018-09-14T02:29:52.268Z,16.97
2018-09-14T02:32:20.800Z,15.37
2018-09-14T02:34:49.372Z,16.20
2018-09-14T02:37:17.952Z,15.00
2018-09-14T02:39:46.479Z,14.30
2018-09-14T02:42:15.037Z,16.13
2018-09-14T02:44:43.562Z,15.63
2018-09-14T02:47:12.126Z,14.90
2018-09-14T02:49:40.660Z,15.37
2018-09-14T02:52:09.224Z,15.80
2018-09-14T02:54:37.821Z,14.83
2018-09-14T02:57:06.389Z,15.70
2018-09-14T02:59:34.919Z,15.83
2018-09-14T03:02:03.517Z,15.30
2018-09-14T03:04:32.124Z,15.23
2018-09-14T03:07:00.674Z,15.43
2018-09-14T03:09:29.213Z,14.40
2018-09-14T03:11:58.177Z,14.93
2018-09-14T03:14:26.736Z,13.83
2018-09-14T03:16:55.301Z,14.40
2018-09-14T03:19:23.820Z,14.70
2018-09-14T03:21:52.404Z,14.10
2018-09-14T03:24:21.171Z,14.23
2018-09-14T03:26:49.732Z,13.43
2018-09-14T03:29:18.510Z,13.13
2018-09-14T03:31:47.068Z,12.63
2018-09-14T03:34:15.576Z,13.13
2018-09-14T03:36:44.120Z,12.87
2018-09-14T03:39:12.667Z,14.03
2018-09-14T03:41:41.212Z,13.77
2018-09-14T03:44:09.779Z,14.17
2018-09-14T03:46:38.321Z,14.10
2018-09-14T03:49:06.835Z,13.40
2018-09-14T03:51:35.383Z,13.97
2018-09-14T03:54:03.902Z,13.37
2018-09-14T03:56:32.449Z,12.53
2018-09-14T03:59:00.973Z,13.67
2018-09-14T04:01:29.536Z,13.53
2018-09-14T04:03:58.064Z,14.63
2018-09-14T04:06:26.636Z,13.87
2018-09-14T04:08:55.152Z,14.67
2018-09-14T04:11:23.764Z,14.97
2018-09-14T04:13:52.283Z,16.23
2018-09-14T04:16:24.843Z,16.10
2018-09-14T04:18:58.880Z,16.37
2018-09-14T04:21:29.069Z,16.43
2018-09-14T04:23:57.813Z,15.83
2018-09-14T04:26:27.512Z,15.23
2018-09-14T04:28:56.513Z,17.67
2018-09-14T04:31:25.090Z,16.47
2018-09-14T04:33:53.761Z,16.23
2018-09-14T04:36:22.380Z,16.63
2018-09-14T04:38:51.007Z,16.80
2018-09-14T04:41:20.365Z,14.57
2018-09-14T04:43:49.826Z,16.30
2018-09-14T04:46:18.794Z,16.03
2018-09-14T04:48:47.338Z,14.93
2018-09-14T04:51:15.895Z,16.10
2018-09-14T04:53:44.432Z,15.00
2018-09-14T04:56:12.953Z,14.63
2018-09-14T04:58:41.501Z,15.67
2018-09-14T05:01:10.021Z,14.60
2018-09-14T05:03:39.045Z,15.27
2018-09-14T05:06:07.608Z,15.57
2018-09-14T05:08:36.251Z,15.33
2018-09-14T05:11:04.841Z,14.80
2018-09-14T05:13:33.405Z,14.50
2018-09-14T05:16:04.143Z,15.80
2018-09-14T05:18:41.306Z,16.70
2018-09-14T05:21:10.153Z,16.00
2018-09-14T05:23:39.634Z,16.13
2018-09-14T05:26:08.776Z,16.47
2018-09-14T05:28:37.336Z,14.97
2018-09-14T05:31:06.434Z,15.80
2018-09-14T05:33:35.383Z,15.27
2018-09-14T05:36:03.936Z,14.50
2018-09-14T05:38:32.532Z,14.67
2018-09-14T05:41:01.062Z,16.10
2018-09-14T05:43:29.804Z,14.67
2018-09-14T05:45:58.333Z,14.93
2018-09-14T05:48:27.088Z,13.80
2018-09-14T05:50:55.736Z,13.60
2018-09-14T05:53:24.299Z,13.83
2018-09-14T05:55:54.304Z,14.23
2018-09-14T05:58:22.865Z,13.37
2018-09-14T06:00:51.493Z,14.23
2018-09-14T06:03:20.109Z,12.73
2018-09-14T06:05:48.700Z,13.73
2018-09-14T06:08:17.273Z,12.90
2018-09-14T06:10:45.809Z,13.67
2018-09-14T06:13:14.411Z,13.40
2018-09-14T06:15:42.946Z,13.43
2018-09-14T06:18:11.512Z,13.40
2018-09-14T06:20:40.036Z,14.63
2018-09-14T06:23:08.666Z,13.60
2018-09-14T06:25:37.165Z,12.63
2018-09-14T06:28:05.873Z,12.00
2018-09-14T06:30:39.021Z,12.23
2018-09-14T06:33:13.497Z,13.33
2018-09-14T06:35:42.253Z,14.20
2018-09-14T06:38:13.717Z,13.70
2018-09-14T06:40:42.457Z,13.37
2018-09-14T06:43:11.108Z,12.40
2018-09-14T06:45:39.656Z,13.60
2018-09-14T06:48:08.225Z,14.20
2018-09-14T06:50:36.778Z,13.50
2018-09-14T06:53:05.357Z,13.73
2018-09-14T06:55:33.941Z,14.53
2018-09-14T06:58:02.485Z,14.20
2018-09-14T07:00:31.135Z,14.47
2018-09-14T07:02:59.612Z,13.80
2018-09-14T07:05:28.299Z,13.20
2018-09-14T07:07:56.846Z,13.37
2018-09-14T07:10:25.426Z,13.97
2018-09-14T07:12:53.964Z,13.60
2018-09-14T07:15:22.867Z,13.40
2018-09-14T07:17:51.421Z,13.07
2018-09-14T07:20:19.981Z,13.03
2018-09-14T07:22:48.521Z,13.03
2018-09-14T07:25:17.088Z,14.13
2018-09-14T07:27:45.636Z,13.73
2018-09-14T07:30:14.272Z,13.83
2018-09-14T07:32:43.053Z,14.63
2018-09-14T07:35:11.650Z,13.60
2018-09-14T07:37:40.185Z,13.60
2018-09-14T07:40:08.766Z,14.17
2018-09-14T07:42:37.343Z,12.77
2018-09-14T07:45:06.293Z,13.00
2018-09-14T07:47:34.828Z,12.80
2018-09-14T07:50:03.407Z,12.73
2018-09-14T07:52:31.941Z,11.90
2018-09-14T07:55:00.512Z,12.57
2018-09-14T07:57:29.054Z,11.90
2018-09-14T07:59:57.628Z,11.17
2018-09-14T08:02:26.178Z,12.73
2018-09-14T08:04:54.758Z,13.10
2018-09-14T08:07:23.275Z,10.80
2018-09-14T08:09:52.109Z,11.60
2018-09-14T08:12:20.649Z,11.27
2018-09-14T08:14:49.201Z,11.50
2018-09-14T08:17:17.728Z,10.63
2018-09-14T08:19:46.276Z,10.80
2018-09-14T08:22:14.784Z,10.50
2018-09-14T08:24:43.368Z,11.90
2018-09-14T08:27:11.907Z,10.53
2018-09-14T08:29:40.428Z,11.30
2018-09-14T08:32:09.002Z,10.97
2018-09-14T08:34:37.523Z,11.23
2018-09-14T08:37:06.104Z,10.67
2018-09-14T08:39:34.622Z,10.77
2018-09-14T08:42:03.169Z,11.47
2018-09-14T08:44:31.689Z,10.60
2018-09-14T08:47:00.297Z,10.70
2018-09-14T08:49:28.817Z,10.93
2018-09-14T08:51:57.433Z,10.27
2018-09-14T08:54:25.961Z,10.03
2018-09-14T08:56:54.513Z,10.23
2018-09-14T08:59:23.045Z,8.90
2018-09-14T09:01:51.613Z,9.20
2018-09-14T09:04:20.133Z,9.97
2018-09-14T09:06:48.722Z,11.03
2018-09-14T09:09:17.306Z,10.40
2018-09-14T09:11:45.789Z,9.63
2018-09-14T09:14:14.309Z,10.43
2018-09-14T09:16:43.196Z,9.77
2018-09-14T09:19:11.726Z,9.50
2018-09-14T09:21:40.274Z,9.87
2018-09-14T09:24:08.808Z,9.77
2018-09-14T09:26:37.358Z,9.43
2018-09-14T09:29:06.046Z,8.87
2018-09-14T09:31:34.596Z,8.67
2018-09-14T09:34:03.120Z,8.00
2018-09-14T09:36:31.677Z,8.90
2018-09-14T09:39:00.189Z,9.17
2018-09-14T09:41:28.728Z,8.13
2018-09-14T09:43:57.301Z,9.63
2018-09-14T09:46:25.804Z,9.43
2018-09-14T09:48:54.321Z,9.73
2018-09-14T09:51:22.930Z,8.27
2018-09-14T09:53:51.400Z,8.63
2018-09-14T09:56:19.939Z,8.90
2018-09-14T09:58:48.509Z,8.57
2018-09-14T10:01:22.289Z,9.00
2018-09-14T10:05:58.413Z,10.03
2018-09-14T10:08:27.028Z,8.17
2018-09-14T10:10:55.577Z,7.87
2018-09-14T10:13:24.141Z,7.53
2018-09-14T10:15:52.664Z,7.83
2018-09-14T10:18:21.231Z,8.40
2018-09-14T10:20:49.828Z,7.80
2018-09-14T10:23:18.682Z,8.80
2018-09-14T10:25:50.120Z,7.90
2018-09-14T10:28:18.686Z,7.67
2018-09-14T10:30:47.204Z,7.90
2018-09-14T10:33:15.805Z,6.60
2018-09-14T10:35:44.363Z,7.03
2018-09-14T10:38:12.922Z,6.47
2018-09-14T10:40:41.471Z,6.40
2018-09-14T10:43:10.018Z,6.70
2018-09-14T10:45:38.569Z,6.90
2018-09-14T10:48:07.162Z,6.27
2018-09-14T10:50:35.677Z,6.40
2018-09-14T10:53:04.293Z,7.67
2018-09-14T10:55:32.821Z,7.00
2018-09-14T10:58:01.369Z,6.70
2018-09-14T11:00:29.900Z,7.20
2018-09-14T11:02:58.457Z,7.23
2018-09-14T11:05:27.008Z,6.67
2018-09-14T11:07:55.553Z,6.30
2018-09-14T11:10:24.116Z,6.53
2018-09-14T11:12:52.715Z,5.70
2018-09-14T11:15:21.232Z,5.43
2018-09-14T11:17:49.776Z,4.93
2018-09-14T11:20:18.288Z,5.93
2018-09-14T11:22:45.783Z,5.17
2018-09-14T11:25:14.466Z,4.77
2018-09-14T11:27:42.941Z,5.17
2018-09-14T11:30:11.481Z,5.07
2018-09-14T11:32:40.103Z,5.10
2018-09-14T11:35:08.708Z,5.43
2018-09-14T11:37:37.265Z,5.87
2018-09-14T11:40:05.833Z,5.60
2018-09-14T11:42:34.648Z,6.27
2018-09-14T11:45:03.212Z,5.93
2018-09-14T11:47:34.970Z,6.43
2018-09-14T11:50:05.211Z,5.87
2018-09-14T11:52:33.818Z,6.23
2018-09-14T11:55:03.078Z,5.90
2018-09-14T11:57:32.069Z,5.70
2018-09-14T12:00:00.613Z,5.57
2018-09-14T12:02:30.135Z,5.63
2018-09-14T12:04:59.737Z,6.60
2018-09-14T12:07:35.879Z,6.27
2018-09-14T12:10:12.215Z,6.13
2018-09-14T12:12:40.968Z,5.70
2018-09-14T12:15:13.288Z,5.70
2018-09-14T12:17:46.389Z,5.27
2018-09-14T12:20:14.984Z,5.03
2018-09-14T12:22:47.531Z,4.10
2018-09-14T12:25:19.471Z,4.33
2018-09-14T12:27:54.008Z,4.70
2018-09-14T12:30:25.841Z,4.40
2018-09-14T12:32:55.878Z,4.93
2018-09-14T12:35:24.424Z,4.83
2018-09-14T12:37:52.993Z,5.60
2018-09-14T12:40:22.852Z,5.00
2018-09-14T12:42:56.106Z,5.23
2018-09-14T12:45:24.690Z,5.30
2018-09-14T12:47:54.204Z,5.20
2018-09-14T12:50:24.864Z,5.13
2018-09-14T12:52:53.418Z,5.57
2018-09-14T12:55:23.447Z,4.83
2018-09-14T12:57:54.403Z,5.73
2018-09-14T13:00:23.029Z,7.77
2018-09-14T13:02:56.747Z,6.10
2018-09-14T13:05:30.461Z,6.97
2018-09-14T13:08:00.873Z,6.67
2018-09-14T13:10:33.509Z,5.80
2018-09-14T13:13:07.267Z,11.03
2018-09-14T13:15:36.345Z,8.20
2018-09-14T13:18:10.900Z,6.67
2018-09-14T13:20:41.829Z,6.03
2018-09-14T13:23:10.332Z,6.80
2018-09-14T13:25:38.865Z,5.70
2018-09-14T13:28:07.421Z,5.50
2018-09-14T13:30:39.101Z,5.67
2018-09-14T13:33:09.337Z,7.27
2018-09-14T13:35:37.939Z,6.60
2018-09-14T13:38:06.963Z,6.17
2018-09-14T13:40:35.516Z,6.43
2018-09-14T13:43:04.037Z,5.60
2018-09-14T13:45:32.597Z,6.47
2018-09-14T13:48:08.686Z,5.40
2018-09-14T13:50:39.435Z,5.60
2018-09-14T13:53:07.991Z,4.20
2018-09-14T13:55:36.560Z,4.50
2018-09-14T13:58:08.931Z,4.23
2018-09-14T14:00:37.690Z,4.40
2018-09-14T14:03:06.733Z,4.00
2018-09-14T14:05:35.564Z,4.67
2018-09-14T14:08:04.076Z,4.23
2018-09-14T14:10:32.586Z,4.90
2018-09-14T14:13:01.203Z,6.47
2018-09-14T14:15:34.178Z,7.07
2018-09-14T14:18:06.875Z,7.13
2018-09-14T14:20:35.641Z,7.33
2018-09-14T14:23:04.202Z,7.37
2018-09-14T14:25:32.817Z,6.87
2018-09-14T14:28:01.378Z,6.50
2018-09-14T14:30:29.884Z,6.33
2018-09-14T14:32:58.582Z,6.53
2018-09-14T14:35:27.100Z,6.73
2018-09-14T14:38:03.310Z,5.37
2018-09-14T14:40:32.186Z,5.90
2018-09-14T14:43:00.948Z,6.03
2018-09-14T14:45:30.444Z,5.73
2018-09-14T14:47:59.260Z,5.07
2018-09-14T14:50:27.768Z,6.47
2018-09-14T14:52:57.826Z,6.37
2018-09-14T14:55:26.745Z,5.50
2018-09-14T14:57:55.929Z,6.70
2018-09-14T15:00:24.457Z,5.93
2018-09-14T15:02:53.009Z,6.07
2018-09-14T15:05:21.566Z,6.20
2018-09-14T15:07:50.116Z,5.70
2018-09-14T15:10:18.632Z,5.80
2018-09-14T15:12:47.181Z,6.30
2018-09-14T15:15:20.247Z,6.23
2018-09-14T15:17:48.953Z,5.90
2018-09-14T15:20:17.505Z,5.40
2018-09-14T15:22:46.052Z,4.73
2018-09-14T15:25:16.976Z,4.60
2018-09-14T15:27:47.704Z,4.30
2018-09-14T15:30:18.395Z,4.40
2018-09-14T15:32:47.020Z,4.37
2018-09-14T15:35:18.245Z,3.90
2018-09-14T15:37:48.336Z,3.37
2018-09-14T15:40:18.145Z,3.60
2018-09-14T15:42:46.698Z,3.43
2018-09-14T15:45:15.214Z,2.97
2018-09-14T15:47:43.803Z,3.00
2018-09-14T15:50:12.329Z,3.40
2018-09-14T15:52:40.874Z,3.13
2018-09-14T15:55:09.436Z,3.50
2018-09-14T15:57:39.974Z,3.20
2018-09-14T16:00:08.716Z,3.37
2018-09-14T16:02:37.240Z,3.50
2018-09-14T16:05:05.881Z,2.80
2018-09-14T16:07:34.416Z,3.00
2018-09-14T16:10:05.377Z,3.73
2018-09-14T16:12:33.920Z,3.63
2018-09-14T16:15:02.519Z,2.93
2018-09-14T16:17:32.885Z,3.27
2018-09-14T16:20:01.537Z,3.70
2018-09-14T16:22:30.073Z,3.03
2018-09-14T16:25:03.590Z,3.87
2018-09-14T16:27:32.118Z,3.97
2018-09-14T16:30:00.677Z,4.80
2018-09-14T16:32:29.209Z,4.70
2018-09-14T16:34:58.081Z,5.23
2018-09-14T16:37:26.759Z,5.00
2018-09-14T16:39:55.329Z,5.87
2018-09-14T16:42:23.871Z,6.37
2018-09-14T16:44:52.461Z,6.00
2018-09-14T16:47:21.000Z,5.97
2018-09-14T16:49:49.566Z,6.03
2018-09-14T16:52:18.111Z,6.23
2018-09-14T16:54:46.672Z,6.60
2018-09-14T16:57:15.205Z,5.60
2018-09-14T16:59:43.800Z,5.77
2018-09-14T17:02:12.342Z,6.20
2018-09-14T17:04:40.973Z,5.70
2018-09-14T17:07:09.590Z,6.07
2018-09-14T17:09:38.165Z,6.30
2018-09-14T17:12:06.701Z,5.70
2018-09-14T17:14:35.309Z,5.57
2018-09-14T17:17:03.820Z,5.77
2018-09-14T17:19:32.364Z,6.00
2018-09-14T17:22:00.901Z,6.33
2018-09-14T17:24:29.439Z,5.93
2018-09-14T17:26:57.957Z,5.17
2018-09-14T17:29:26.509Z,6.10
2018-09-14T17:31:55.030Z,5.63
2018-09-14T17:34:29.434Z,6.57
2018-09-14T17:37:02.214Z,6.10
2018-09-14T17:39:30.808Z,5.47
2018-09-14T17:41:59.309Z,6.03
2018-09-14T17:44:35.625Z,6.43
2018-09-14T17:47:06.699Z,5.53
2018-09-14T17:49:40.395Z,5.70
2018-09-14T17:52:09.030Z,5.90
2018-09-14T17:54:37.577Z,6.10
2018-09-14T17:57:06.083Z,6.13
2018-09-14T17:59:34.648Z,5.53
2018-09-14T18:02:03.171Z,6.17
2018-09-14T18:04:35.450Z,6.20
2018-09-14T18:07:04.164Z,6.50
2018-09-14T18:09:32.689Z,6.50
2018-09-14T18:12:01.256Z,6.40
2018-09-14T18:14:29.840Z,5.93
2018-09-14T18:16:58.880Z,6.00
2018-09-14T18:19:27.421Z,5.83
2018-09-14T18:21:56.082Z,6.00
2018-09-14T18:24:25.009Z,5.80
2018-09-14T18:26:53.603Z,5.20
2018-09-14T18:29:22.158Z,5.67
2018-09-14T18:31:51.402Z,6.17
2018-09-14T18:34:19.953Z,5.93
2018-09-14T18:36:48.576Z,5.87
2018-09-14T18:39:17.112Z,5.33
2018-09-14T18:41:47.177Z,5.77
2018-09-14T18:44:23.981Z,6.10
2018-09-14T18:46:52.759Z,6.10
2018-09-14T18:49:26.574Z,5.70
2018-09-14T18:52:02.861Z,5.67
2018-09-14T18:54:34.249Z,6.13
2018-09-14T18:57:02.834Z,6.03
2018-09-14T18:59:31.396Z,6.20
2018-09-14T19:01:59.973Z,5.87
2018-09-14T19:04:28.493Z,5.80
2018-09-14T19:06:57.093Z,5.83
2018-09-14T19:09:25.624Z,5.57
2018-09-14T19:11:54.185Z,6.73
2018-09-14T19:14:22.725Z,5.60
2018-09-14T19:16:51.289Z,5.63
2018-09-14T19:19:20.284Z,5.10
2018-09-14T19:21:48.849Z,5.70
2018-09-14T19:24:17.378Z,6.07
2018-09-14T19:26:45.945Z,5.93
2018-09-14T19:29:14.468Z,6.00
2018-09-14T19:31:43.091Z,6.07
2018-09-14T19:34:11.668Z,5.80
2018-09-14T19:36:40.277Z,6.27
2018-09-14T19:39:10.772Z,6.23
2018-09-14T19:41:39.385Z,6.27
2018-09-14T19:44:07.932Z,6.30
2018-09-14T19:46:36.561Z,7.13
2018-09-14T19:49:05.409Z,6.70
2018-09-14T19:51:33.992Z,5.73
2018-09-14T19:54:02.572Z,6.27
2018-09-14T19:56:31.164Z,6.43
2018-09-14T19:58:59.717Z,6.13
2018-09-14T20:01:28.325Z,6.27
2018-09-14T20:03:56.855Z,6.93
2018-09-14T20:06:25.644Z,6.50
2018-09-14T20:08:54.223Z,5.83
2018-09-14T20:11:22.817Z,6.70
2018-09-14T20:13:51.708Z,7.10
2018-09-14T20:16:20.466Z,8.00
2018-09-14T20:18:49.544Z,7.37
2018-09-14T20:21:18.124Z,7.73
2018-09-14T20:23:46.677Z,8.23
2018-09-14T20:26:15.528Z,7.07
2018-09-14T20:28:46.768Z,7.10
2018-09-14T20:31:15.309Z,8.47
2018-09-14T20:33:49.351Z,7.63
2018-09-14T20:36:22.834Z,8.40
2018-09-14T20:38:53.170Z,8.50
2018-09-14T20:41:22.708Z,7.80
2018-09-14T20:43:53.507Z,8.13
2018-09-14T20:46:23.104Z,8.90
2018-09-14T20:48:53.716Z,7.30
2018-09-14T20:51:24.100Z,7.30
2018-09-14T20:53:55.105Z,8.70
2018-09-14T20:56:25.352Z,7.23
2018-09-14T20:58:54.885Z,7.77
2018-09-14T21:01:33.409Z,8.50
2018-09-14T21:04:04.088Z,7.80
2018-09-14T21:06:35.288Z,8.67
2018-09-14T21:09:08.413Z,7.97
2018-09-14T21:11:38.790Z,8.73
2018-09-14T21:14:10.393Z,9.70
2018-09-14T21:16:45.208Z,8.60
2018-09-14T21:19:15.241Z,8.30
2018-09-14T21:21:48.061Z,8.43
2018-09-14T21:24:16.775Z,8.37
2018-09-14T21:26:45.316Z,9.10
2018-09-14T21:29:15.535Z,9.37
2018-09-14T21:31:47.856Z,7.73
2018-09-14T21:34:17.704Z,8.10
2018-09-14T21:36:51.892Z,8.50
2018-09-14T21:39:22.218Z,8.83
2018-09-14T21:41:55.270Z,7.30
2018-09-14T21:44:25.453Z,8.73
2018-09-14T21:46:57.561Z,8.17
2018-09-14T21:49:32.134Z,7.83
2018-09-14T21:52:01.872Z,8.00
2018-09-14T21:54:31.635Z,8.53
2018-09-14T21:57:01.397Z,8.10
2018-09-14T21:59:34.215Z,8.53
2018-09-14T22:02:10.326Z,7.27
2018-09-14T22:04:40.256Z,7.60
2018-09-14T22:07:12.543Z,6.97
2018-09-14T22:09:43.662Z,7.33
2018-09-14T22:12:14.296Z,7.27
2018-09-14T22:14:45.084Z,7.50
2018-09-14T22:17:14.453Z,7.10
2018-09-14T22:19:44.708Z,7.20
2018-09-14T22:22:18.073Z,7.23
2018-09-14T22:24:48.833Z,7.37
2018-09-14T22:27:20.327Z,7.60
2018-09-14T22:29:51.101Z,6.87
2018-09-14T22:32:20.393Z,6.10
2018-09-14T22:34:50.512Z,6.73
2018-09-14T22:37:23.508Z,6.27
2018-09-14T22:39:56.292Z,6.67
2018-09-14T22:42:25.121Z,7.23
2018-09-14T22:44:53.659Z,8.40
2018-09-14T22:47:22.173Z,6.73
2018-09-14T22:49:50.705Z,5.90
2018-09-14T22:52:19.216Z,7.00
2018-09-14T22:54:47.744Z,7.57
2018-09-14T22:57:16.256Z,8.27
2018-09-14T22:59:44.828Z,7.00
2018-09-14T23:02:13.332Z,7.27
2018-09-14T23:04:41.918Z,7.90
2018-09-14T23:07:10.421Z,7.67
2018-09-14T23:09:38.956Z,8.13
2018-09-14T23:12:07.746Z,7.27
2018-09-14T23:14:36.279Z,7.13
2018-09-14T23:17:04.799Z,8.70
2018-09-14T23:19:33.352Z,7.27
2018-09-14T23:22:01.860Z,6.70
2018-09-14T23:24:30.396Z,7.43
2018-09-14T23:26:58.928Z,7.03
2018-09-14T23:29:27.465Z,6.30
2018-09-14T23:31:55.963Z,6.20
2018-09-14T23:34:24.497Z,6.07
2018-09-14T23:36:53.004Z,6.23
2018-09-14T23:39:21.546Z,5.90
2018-09-14T23:41:50.296Z,7.03
2018-09-14T23:44:18.832Z,6.83
2018-09-14T23:46:47.333Z,6.13
2018-09-14T23:49:16.405Z,6.40
2018-09-14T23:51:44.916Z,6.37
2018-09-14T23:54:13.488Z,6.20
2018-09-14T23:56:42.000Z,6.47
2018-09-14T23:59:10.546Z,6.47
